Time;durP1;ratioP1;P1;durP2;ratioP2;P2;SDS_P1;SDS_P2;PMS_P1;PMS_P2;Temp;Humidity;BMP_temperature;BMP_pressure;BME280_temperature;BME280_humidity;BME280_pressure;Samples;Min_cycle;Max_cycle;Signal;HPM_P1;HPM_P2
2023/06/07 00:09:37;;;;;;;21.58;14.57;;;;;;;19.82;100.00;101012.59;20802167;28;20056;-74
2023/06/07 00:20:01;;;;;;;20.08;12.82;;;;;;;19.74;100.00;101006.53;20791921;28;20048;-74
2023/06/07 00:30:23;;;;;;;19.45;13.60;;;;;;;19.68;100.00;100998.59;20804492;28;20059;-74
2023/06/07 00:40:48;;;;;;;22.15;14.43;;;;;;;19.57;100.00;100988.97;20782874;28;20172;-74
2023/06/07 00:51:11;;;;;;;18.08;14.00;;;;;;;19.52;100.00;100982.81;20783179;28;20549;-74
2023/06/07 01:01:35;;;;;;;21.00;13.20;;;;;;;19.45;100.00;100979.31;20803255;28;20556;-73
2023/06/07 01:11:59;;;;;;;19.05;12.73;;;;;;;19.36;100.00;100975.00;20822608;28;20072;-74
2023/06/07 01:22:27;;;;;;;19.90;14.65;;;;;;;19.30;100.00;100968.88;20800009;28;20069;-73
2023/06/07 01:32:53;;;;;;;20.60;12.47;;;;;;;18.94;100.00;100965.91;20798818;28;20136;-74
2023/06/07 01:43:16;;;;;;;20.48;13.00;;;;;;;18.86;100.00;100958.88;20788831;28;20049;-74
2023/06/07 01:53:40;;;;;;;19.90;14.93;;;;;;;18.89;100.00;100967.75;20803078;28;20049;-74
2023/06/07 02:04:08;;;;;;;25.63;16.77;;;;;;;18.85;100.00;100957.09;20808962;28;20058;-74
2023/06/07 02:14:33;;;;;;;24.50;15.40;;;;;;;18.79;100.00;100950.06;20776391;28;20045;-74
2023/06/07 02:24:55;;;;;;;22.25;15.55;;;;;;;18.73;100.00;100950.16;20814623;28;20084;-74
2023/06/07 02:35:19;;;;;;;25.35;17.30;;;;;;;18.70;100.00;100945.75;20816115;28;20068;-74
2023/06/07 02:45:42;;;;;;;23.98;16.13;;;;;;;18.61;100.00;100945.88;20800389;28;20568;-74
2023/06/07 02:56:06;;;;;;;22.85;15.60;;;;;;;18.58;100.00;100942.34;20815394;28;20045;-73
2023/06/07 03:06:29;;;;;;;19.92;15.98;;;;;;;18.56;100.00;100947.75;20802214;28;20045;-73
2023/06/07 03:16:57;;;;;;;25.30;15.02;;;;;;;18.62;100.00;100947.66;20795220;28;20140;-73
2023/06/07 03:27:22;;;;;;;19.50;13.10;;;;;;;18.81;100.00;100952.72;20802715;28;20055;-73
2023/06/07 03:37:48;;;;;;;16.00;10.32;;;;;;;19.17;100.00;100962.84;20794728;28;20041;-74
2023/06/07 03:48:15;;;;;;;16.90;10.38;;;;;;;19.63;100.00;100968.31;20797515;28;20069;-73
2023/06/07 03:58:41;;;;;;;14.40;9.07;;;;;;;20.27;100.00;100972.44;20795542;28;20095;-75
2023/06/07 04:09:09;;;;;;;14.00;9.07;;;;;;;20.81;100.00;100970.34;20794576;28;20478;-74
2023/06/07 04:19:33;;;;;;;14.25;7.93;;;;;;;21.59;100.00;100980.13;20811758;28;20052;-74
2023/06/07 04:29:57;;;;;;;12.48;7.20;;;;;;;22.26;100.00;100972.88;20797703;28;20046;-74
2023/06/07 04:40:23;;;;;;;15.27;9.30;;;;;;;22.25;100.00;100958.53;20796429;28;20052;-74
2023/06/07 04:50:46;;;;;;;13.70;8.13;;;;;;;22.65;100.00;100955.53;20815330;28;20145;-75
2023/06/07 05:01:10;;;;;;;14.55;7.88;;;;;;;23.19;100.00;100965.50;20803416;28;20123;-74
2023/06/07 05:11:34;;;;;;;14.20;7.03;;;;;;;24.07;100.00;100970.53;20789286;28;20042;-74
2023/06/07 05:22:03;;;;;;;12.15;6.28;;;;;;;24.98;100.00;100964.34;20786911;28;20101;-74
2023/06/07 05:32:27;;;;;;;11.48;6.03;;;;;;;25.79;100.00;100956.41;20791817;28;20041;-74
2023/06/07 05:42:51;;;;;;;11.80;5.88;;;;;;;26.49;100.00;100955.03;20736164;28;20050;-74
2023/06/07 05:53:15;;;;;;;12.57;6.05;;;;;;;26.94;100.00;100958.28;20774457;28;20160;-75
2023/06/07 06:03:39;;;;;;;13.15;6.97;;;;;;;26.83;100.00;100951.59;20814208;28;20410;-74
2023/06/07 06:14:02;;;;;;;10.18;5.95;;;;;;;27.02;100.00;100965.16;20807940;28;20042;-74
2023/06/07 06:24:26;;;;;;;13.40;5.68;;;;;;;28.46;100.00;100961.19;20810513;28;20057;-74
2023/06/07 06:34:49;;;;;;;10.60;5.80;;;;;;;28.00;100.00;100960.06;20809011;28;20045;-74
2023/06/07 06:45:12;;;;;;;15.05;6.45;;;;;;;27.52;100.00;100963.53;20804563;28;20142;-74
2023/06/07 06:55:35;;;;;;;12.00;5.20;;;;;;;28.78;100.00;100964.84;20809676;28;20061;-73
2023/06/07 07:05:59;;;;;;;10.82;4.97;;;;;;;29.32;100.00;100960.78;20792473;28;20053;-74
2023/06/07 07:16:21;;;;;;;11.63;6.05;;;;;;;30.19;100.00;100973.72;20814706;28;20046;-74
2023/06/07 07:26:46;;;;;;;10.15;5.25;;;;;;;30.49;97.50;100974.53;20807291;28;20145;-75
2023/06/07 07:37:09;;;;;;;9.15;5.72;;;;;;;30.71;100.00;100966.75;20776171;28;20157;-75
2023/06/07 07:47:33;;;;;;;12.90;6.53;;;;;;;30.45;100.00;100983.84;20818848;28;20057;-74
2023/06/07 07:57:55;;;;;;;11.50;5.38;;;;;;;30.58;100.00;100995.75;20804732;28;20076;-75
2023/06/07 08:08:19;;;;;;;10.25;6.28;;;;;;;30.61;100.00;101001.00;20809760;28;20061;-75
2023/06/07 08:18:44;;;;;;;12.68;5.70;;;;;;;30.76;100.00;101010.06;20822610;28;20057;-75
2023/06/07 08:29:07;;;;;;;12.75;6.25;;;;;;;30.86;100.00;101001.16;20786209;28;20078;-75
2023/06/07 08:39:30;;;;;;;12.48;4.80;;;;;;;31.04;100.00;101003.69;20784649;28;20041;-75
2023/06/07 08:49:57;;;;;;;11.00;5.72;;;;;;;31.23;99.16;101004.25;20816263;28;20045;-74
2023/06/07 09:00:24;;;;;;;10.65;6.18;;;;;;;31.34;97.12;101019.91;20811169;28;20137;-75
2023/06/07 09:10:49;;;;;;;13.77;5.75;;;;;;;31.62;95.50;101022.56;20806941;28;20671;-74
2023/06/07 09:21:22;;;;;;;10.93;5.03;;;;;;;31.77;91.31;101020.66;20817926;28;20045;-75
2023/06/07 09:31:46;;;;;;;11.52;5.63;;;;;;;31.80;88.36;101015.84;20808831;28;20052;-75
2023/06/07 09:42:16;;;;;;;10.52;5.90;;;;;;;32.16;79.66;101017.03;20804316;28;20049;-75
2023/06/07 09:52:41;;;;;;;10.50;5.72;;;;;;;32.48;77.84;101020.22;20793831;28;20054;-74
2023/06/07 10:03:06;;;;;;;12.53;5.17;;;;;;;32.68;73.00;101006.88;20815616;28;20081;-74
2023/06/07 10:13:31;;;;;;;12.70;5.20;;;;;;;32.51;74.33;101000.84;20791010;28;20050;-74
2023/06/07 10:23:57;;;;;;;;;;;;;;;32.26;73.85;101009.94;20813960;28;20549;-73
2023/06/07 10:34:22;;;;;;;11.38;5.15;;;;;;;32.45;70.18;101008.50;20813141;28;19925;-74
2023/06/07 10:44:45;;;;;;;11.40;5.90;;;;;;;32.81;66.92;101020.53;20807020;28;20501;-74
2023/06/07 10:55:27;;;;;;;10.45;5.22;;;;;;;33.02;64.80;101023.53;20795448;28;20160;-74
2023/06/07 11:06:05;;;;;;;10.60;5.40;;;;;;;32.95;62.72;101012.16;20803196;28;20168;-74
2023/06/07 11:16:39;;;;;;;10.50;5.13;;;;;;;32.97;57.72;101010.19;20797583;28;20049;-74
2023/06/07 11:27:02;;;;;;;11.70;5.07;;;;;;;32.45;53.99;101005.78;20828767;28;20140;-74
2023/06/07 11:37:26;;;;;;;11.90;5.25;;;;;;;32.43;52.81;100982.25;20793032;28;20091;-74
2023/06/07 11:47:49;;;;;;;7.70;5.32;;;;;;;32.37;51.03;100974.47;20817682;28;20060;-74
2023/06/07 11:58:15;;;;;;;8.90;5.05;;;;;;;31.87;50.98;100973.47;20807288;28;20058;-74
2023/06/07 12:08:37;;;;;;;8.20;4.88;;;;;;;31.84;52.05;100957.28;20790050;28;20456;-75
2023/06/07 12:19:02;;;;;;;9.20;5.20;;;;;;;32.08;48.39;100953.81;20764074;28;20038;-74
2023/06/07 12:29:29;;;;;;;9.60;5.25;;;;;;;32.39;46.54;100951.53;20778897;28;20058;-74
2023/06/07 12:39:53;;;;;;;10.10;4.85;;;;;;;32.42;47.79;100934.91;20806628;28;20060;-75
2023/06/07 12:50:15;;;;;;;11.70;6.15;;;;;;;32.14;51.72;100920.63;20807847;28;20053;-75
2023/06/07 13:00:40;;;;;;;12.50;5.20;;;;;;;31.83;51.12;100919.16;20817015;28;20088;-74
2023/06/07 13:11:05;;;;;;;8.37;4.83;;;;;;;31.72;50.02;100911.72;20800061;28;20046;-74
2023/06/07 13:21:10;;;;;;;11.48;5.10;;;;;;;31.18;53.91;100905.44;20838266;28;20049;-74
2023/06/07 13:31:32;;;;;;;9.52;4.85;;;;;;;30.98;51.54;100909.50;20826831;28;20115;-74
2023/06/07 13:41:57;;;;;;;9.27;5.13;;;;;;;30.98;52.44;100906.78;20814260;28;20052;-74
2023/06/07 13:52:20;;;;;;;5.80;4.13;;;;;;;30.66;52.83;100908.00;20812374;28;20049;-74
2023/06/07 14:02:45;;;;;;;7.50;4.43;;;;;;;30.49;55.95;100909.13;20814815;28;20049;-74
2023/06/07 14:13:07;;;;;;;9.43;5.82;;;;;;;30.41;57.92;100890.50;20810143;28;20446;-75
2023/06/07 14:23:31;;;;;;;10.88;5.88;;;;;;;30.87;58.50;100896.56;20779608;28;20057;-74
2023/06/07 14:33:54;;;;;;;7.80;4.40;;;;;;;31.02;58.88;100907.44;20800642;28;20050;-75
2023/06/07 14:44:19;;;;;;;11.23;4.55;;;;;;;31.01;63.95;100913.84;20754681;28;20588;-74
2023/06/07 14:54:41;;;;;;;11.52;5.07;;;;;;;30.33;75.00;100906.47;20767887;28;20053;-74
2023/06/07 15:05:07;;;;;;;9.38;5.05;;;;;;;30.38;70.98;100906.19;20791185;28;20059;-75
2023/06/07 15:15:30;;;;;;;9.85;5.30;;;;;;;30.17;77.99;100899.38;20771112;28;20567;-74
2023/06/07 15:25:54;;;;;;;11.95;6.63;;;;;;;29.76;87.37;100897.38;20809146;28;20057;-75
2023/06/07 15:36:16;;;;;;;9.85;6.55;;;;;;;28.97;97.49;100888.56;20807040;28;20409;-74
2023/06/07 15:46:40;;;;;;;12.77;6.63;;;;;;;28.18;100.00;100868.63;20807698;28;20053;-74
2023/06/07 15:57:03;;;;;;;12.55;7.13;;;;;;;27.73;100.00;100882.84;20777271;28;20125;-75
2023/06/07 16:07:27;;;;;;;13.95;6.95;;;;;;;27.45;100.00;100867.09;20790774;28;20398;-74
2023/06/07 16:17:51;;;;;;;15.18;8.02;;;;;;;27.00;100.00;100861.34;20804901;28;20139;-75
2023/06/07 16:28:16;;;;;;;14.82;7.90;;;;;;;26.82;100.00;100852.28;20811965;28;20056;-75
2023/06/07 16:38:39;;;;;;;17.30;8.43;;;;;;;26.66;100.00;100849.47;20829229;28;20053;-75
2023/06/07 16:49:03;;;;;;;18.15;8.40;;;;;;;26.50;100.00;100857.47;20823483;28;20048;-74
2023/06/07 16:59:25;;;;;;;12.50;8.80;;;;;;;26.33;100.00;100830.31;20809091;28;20054;-74
2023/06/07 17:09:49;;;;;;;17.08;9.63;;;;;;;26.08;100.00;100841.41;20816986;28;20089;-74
2023/06/07 17:20:13;;;;;;;14.23;9.32;;;;;;;25.92;100.00;100832.28;20804068;28;20057;-74
2023/06/07 17:30:40;;;;;;;14.70;9.50;;;;;;;25.72;100.00;100816.09;20823681;28;20056;-74
2023/06/07 17:41:02;;;;;;;17.75;10.25;;;;;;;25.58;100.00;100834.78;20817836;28;20399;-75
2023/06/07 17:51:26;;;;;;;19.50;9.27;;;;;;;25.34;100.00;100848.38;20821804;28;20303;-75
2023/06/07 18:01:51;;;;;;;17.20;9.68;;;;;;;25.16;100.00;100849.19;20784458;28;20061;-76
2023/06/07 18:12:19;;;;;;;18.75;10.80;;;;;;;24.92;100.00;100840.34;20819138;28;20148;-75
2023/06/07 18:22:41;;;;;;;19.20;11.17;;;;;;;24.92;100.00;100842.16;20819971;28;20498;-75
2023/06/07 18:33:06;;;;;;;19.88;11.88;;;;;;;24.80;100.00;100850.75;20819724;28;20068;-74
2023/06/07 18:43:29;;;;;;;18.83;9.48;;;;;;;24.68;100.00;100837.75;20813485;28;20149;-75
2023/06/07 18:53:53;;;;;;;21.23;11.43;;;;;;;24.64;100.00;100839.69;20787426;28;20061;-74
2023/06/07 19:04:15;;;;;;;16.88;11.05;;;;;;;24.59;100.00;100855.19;20822867;28;20049;-74
2023/06/07 19:14:39;;;;;;;19.65;11.77;;;;;;;24.49;100.00;100861.91;20789990;28;20520;-73
2023/06/07 19:24:43;;;;;;;19.40;10.60;;;;;;;24.28;100.00;100866.34;20797174;28;20523;-74
2023/06/07 19:35:08;;;;;;;17.10;10.52;;;;;;;24.20;100.00;100852.28;20796893;28;20037;-73
2023/06/07 19:45:31;;;;;;;16.42;10.35;;;;;;;24.11;100.00;100820.22;20792822;28;20051;-73
2023/06/07 19:55:55;;;;;;;17.80;10.77;;;;;;;23.74;100.00;100826.16;20801033;28;20061;-74
2023/06/07 20:06:18;;;;;;;15.45;10.70;;;;;;;23.92;100.00;100848.84;20804103;28;20053;-74
2023/06/07 20:16:42;;;;;;;15.25;11.13;;;;;;;23.92;100.00;100873.09;20797844;28;20583;-74
2023/06/07 20:27:06;;;;;;;17.77;10.65;;;;;;;23.81;100.00;100862.75;20816148;28;20080;-74
2023/06/07 20:37:31;;;;;;;13.73;10.15;;;;;;;23.67;100.00;100849.78;20807955;28;20119;-74
2023/06/07 20:47:33;;;;;;;17.35;11.45;;;;;;;23.58;100.00;100858.19;20766356;28;20078;-74
2023/06/07 20:57:57;;;;;;;17.38;10.90;;;;;;;23.58;100.00;100846.50;20803353;28;20135;-74
2023/06/07 21:08:20;;;;;;;15.18;10.38;;;;;;;23.59;100.00;100842.88;20801772;28;20064;-74
2023/06/07 21:18:44;;;;;;;15.57;10.23;;;;;;;23.55;100.00;100817.88;20813749;28;20059;-74
2023/06/07 21:29:06;;;;;;;15.82;10.45;;;;;;;23.36;100.00;100830.22;20819198;28;20460;-74
2023/06/07 21:39:31;;;;;;;17.17;11.02;;;;;;;23.43;100.00;100824.53;20812892;28;20064;-74
2023/06/07 21:49:56;;;;;;;15.77;10.05;;;;;;;23.42;100.00;100811.16;20825044;28;20045;-74
2023/06/07 22:00:21;;;;;;;21.17;11.32;;;;;;;22.98;100.00;100789.34;20817660;28;20509;-74
2023/06/07 22:10:44;;;;;;;17.85;11.90;;;;;;;22.69;100.00;100821.75;20816444;28;20494;-73
2023/06/07 22:21:12;;;;;;;13.52;10.65;;;;;;;22.76;100.00;100822.47;20817009;28;20049;-74
2023/06/07 22:31:36;;;;;;;13.90;10.53;;;;;;;22.48;100.00;100795.53;20814878;28;20050;-74
2023/06/07 22:42:00;;;;;;;15.90;10.88;;;;;;;22.46;100.00;100805.47;20821665;28;20299;-74
2023/06/07 22:52:23;;;;;;;15.07;11.63;;;;;;;22.48;100.00;100803.63;20818108;28;20061;-74
2023/06/07 23:02:48;;;;;;;17.10;10.73;;;;;;;22.38;100.00;100786.91;20806121;28;20076;-74
2023/06/07 23:13:15;;;;;;;15.80;10.30;;;;;;;22.25;100.00;100781.00;20809148;28;20081;-74
2023/06/07 23:23:39;;;;;;;16.15;10.52;;;;;;;22.25;100.00;100775.63;20806654;28;20441;-73
2023/06/07 23:34:02;;;;;;;18.98;11.00;;;;;;;21.97;100.00;100773.88;20816388;28;20406;-74
2023/06/07 23:44:28;;;;;;;15.60;10.02;;;;;;;22.07;100.00;100776.22;20804087;28;20049;-73
2023/06/07 23:54:50;;;;;;;16.27;10.48;;;;;;;22.21;100.00;100781.16;20816115;28;20049;-74
